Search for airport 
image banner adimage banner adimage banner ad
image banner ad

34CL - Burney Service Center

Located in Burney, United States

ICAO - 34CL, IATA -

Data provided by Airmate  

General information

Coordinates: N40°53'37" W121°39'5"
Elevation is 3116 feet MSL.
Magnetic variation is 17° East
View others Airports in California

Operational data

Special qualification required
Current time UTC:
Current local time:
Weather at : KRDD - Redding Muni ( 69 km )
METAR: KRDD 231453Z 35009KT 10SM CLR 24/04 A3001 RMK AO2 SLP156 T02390044 53009
TAF: KRDD 231120Z 2312/2412 36009KT P6SM SKC FM231700 36014G23KT P6SM SKC FM240000 35006KT P6SM FEW250
View NOTAMs / SUP AIP / TFR affecting this airport [VIEW]
Communications frequencies: [VIEW]

Runways:

Airport contact information

Address: Burney United States

Satellite view of 34CL